Time;durP1;ratioP1;P1;durP2;ratioP2;P2;SDS_P1;SDS_P2;PMS_P1;PMS_P2;Temp;Humidity;BMP_temperature;BMP_pressure;BME280_temperature;BME280_humidity;BME280_pressure;Samples;Min_cycle;Max_cycle;Signal;HPM_P1;HPM_P2
2022/03/04 00:01:53;;;;;;;;;;;;;;;;;;5033270;28;20049;-78
2022/03/04 00:04:19;;;;;;;37.15;19.33;;;;;;;;;;5032707;28;19925;-77
2022/03/04 00:06:45;;;;;;;40.72;20.85;;;;;;;;;;5032568;28;20048;-77
2022/03/04 00:09:11;;;;;;;39.88;21.00;;;;;;;;;;5032467;28;20052;-78
2022/03/04 00:11:37;;;;;;;37.42;20.10;;;;;;;;;;5032391;28;20544;-78
2022/03/04 00:14:04;;;;;;;42.72;20.15;;;;;;;;;;5032638;28;20405;-78
2022/03/04 00:16:30;;;;;;;41.30;20.08;;;;;;;;;;5014991;28;20353;-78
2022/03/04 00:19:11;;;;;;;42.78;21.67;;;;;;;;;;5032538;28;20107;-77
2022/03/04 00:21:42;;;;;;;44.47;20.83;;;;;;;;;;5032087;28;20049;-79
2022/03/04 00:24:09;;;;;;;42.05;21.13;;;;;;;;;;5032414;28;20136;-78
2022/03/04 00:26:35;;;;;;;46.15;20.73;;;;;;;;;;5013871;28;20075;-77
2022/03/04 00:29:01;;;;;;;;;;;0.80;99.90;;;;;;5032734;28;20057;-78
2022/03/04 00:31:27;;;;;;;42.03;19.27;;;1.10;99.90;;;;;;5014817;28;19921;-79
2022/03/04 00:33:53;;;;;;;41.80;21.13;;;;;;;;;;5047285;28;20052;-78
2022/03/04 00:36:23;;;;;;;40.97;21.08;;;;;;;;;;5032057;28;20045;-77
2022/03/04 00:38:53;;;;;;;43.63;20.55;;;;;;;;;;5032489;28;20489;-78
2022/03/04 00:41:20;;;;;;;38.97;20.17;;;;;;;;;;5032166;28;20136;-77
2022/03/04 00:43:46;;;;;;;46.60;21.25;;;;;;;;;;5031987;28;20134;-78
2022/03/04 00:46:13;;;;;;;46.10;20.58;;;;;;;;;;5031883;28;20501;-78
2022/03/04 00:48:40;;;;;;;47.75;21.90;;;;;;;;;;5031912;28;20493;-78
2022/03/04 00:51:06;;;;;;;;;;;;;;;;;;5032543;28;20405;-79
2022/03/04 00:53:32;;;;;;;41.33;20.52;;;;;;;;;;5031825;28;19925;-78
2022/03/04 00:55:58;;;;;;;42.60;20.42;;;;;;;;;;5032021;28;20053;-79
2022/03/04 00:58:24;;;;;;;39.75;19.85;;;;;;;;;;5031985;28;20052;-78
2022/03/04 01:00:50;;;;;;;44.33;21.13;;;;;;;;;;5031837;28;20053;-77
2022/03/04 01:03:17;;;;;;;48.58;20.23;;;;;;;;;;5031701;28;20128;-78
2022/03/04 01:05:43;;;;;;;41.53;20.67;;;;;;;;;;5047103;28;20516;-78
2022/03/04 01:08:09;;;;;;;41.75;20.17;;;;;;;;;;5031923;28;20378;-78
2022/03/04 01:10:35;;;;;;;40.05;19.33;;;;;;;;;;5014188;28;20057;-77
2022/03/04 01:13:01;;;;;;;41.63;20.60;;;;;;;;;;5031579;28;20521;-79
2022/03/04 01:15:27;;;;;;;39.92;19.58;;;;;;;;;;5030561;28;20057;-78
2022/03/04 01:17:53;;;;;;;44.38;19.73;;;;;;;;;;5031660;28;20132;-79
2022/03/04 01:20:20;;;;;;;43.03;20.30;;;;;;;;;;5031558;28;20060;-78
2022/03/04 01:22:46;;;;;;;40.58;19.17;;;;;;;;;;5031711;28;20085;-79
2022/03/04 01:25:12;;;;;;;42.75;20.17;;;;;;;;;;5031765;28;20119;-79
2022/03/04 01:27:38;;;;;;;41.53;19.83;;;;;;;;;;5030530;28;20045;-79
2022/03/04 01:30:05;;;;;;;39.00;19.00;;;;;;;;;;5031516;28;20440;-79
2022/03/04 01:32:31;;;;;;;41.17;19.75;;;;;;;;;;5031475;28;20137;-76
2022/03/04 01:34:57;;;;;;;41.67;19.80;;;;;;;;;;5031561;28;20054;-78
2022/03/04 01:37:24;;;;;;;46.35;20.55;;;;;;;;;;5032732;28;20049;-79
2022/03/04 01:39:50;;;;;;;42.20;19.63;;;;;;;;;;5017957;28;20049;-78
2022/03/04 01:42:16;;;;;;;42.03;19.23;;;;;;;;;;5035586;28;20459;-79
2022/03/04 01:44:42;;;;;;;39.35;18.75;;;;;;;;;;5035218;28;20049;-76
2022/03/04 01:47:08;;;;;;;47.92;20.13;;;;;;;;;;5035217;28;20050;-76
2022/03/04 01:49:34;;;;;;;47.38;20.25;;;0.60;99.90;;;;;;5035452;28;20049;-79
2022/03/04 01:52:01;;;;;;;44.13;19.38;;;;;;;;;;5035196;28;20069;-78
2022/03/04 01:54:27;;;;;;;43.58;20.20;;;;;;;;;;5035155;28;20096;-79
2022/03/04 01:56:53;;;;;;;44.55;20.33;;;;;;;;;;5035120;28;20056;-79
2022/03/04 01:59:19;;;;;;;40.47;20.15;;;;;;;;;;5017573;28;20092;-79
2022/03/04 02:01:45;;;;;;;47.65;20.35;;;;;;;;;;5017444;28;20045;-79
2022/03/04 02:04:11;;;;;;;46.40;19.85;;;;;;;;;;5035132;28;20048;-78
2022/03/04 02:06:37;;;;;;;40.92;18.85;;;;;;;;;;5034931;28;20042;-78
2022/03/04 02:09:03;;;;;;;45.47;19.92;;;;;;;;;;5034920;28;20042;-79
2022/03/04 02:11:30;;;;;;;46.60;19.95;;;;;;;;;;5034951;28;20399;-78
2022/03/04 02:13:56;;;;;;;43.90;19.23;;;;;;;;;;5034574;28;20037;-78
2022/03/04 02:16:24;;;;;;;42.33;19.95;;;;;;;;;;5034677;28;20460;-76
2022/03/04 02:18:49;;;;;;;43.88;19.58;;;0.60;99.90;;;;;;5034763;28;20053;-79
2022/03/04 02:21:17;;;;;;;41.87;20.27;;;;;;;;;;5034747;28;20698;-78
2022/03/04 02:23:43;;;;;;;42.08;19.63;;;;;;;;;;5034580;28;20060;-79
2022/03/04 02:26:09;;;;;;;44.55;19.83;;;;;;;;;;5017045;28;20088;-78
2022/03/04 02:28:35;;;;;;;;;;;;;;;;;;5034946;28;20049;-77
2022/03/04 02:31:01;;;;;;;39.10;18.55;;;;;;;;;;5034505;28;19932;-77
2022/03/04 02:33:27;;;;;;;52.47;19.42;;;;;;;;;;5034367;28;20481;-77
2022/03/04 02:35:53;;;;;;;43.15;19.88;;;;;;;;;;5034511;28;20049;-78
2022/03/04 02:38:19;;;;;;;46.55;20.02;;;;;;;;;;5034472;28;20058;-77
2022/03/04 02:40:45;;;;;;;42.63;19.70;;;;;;;;;;5034319;28;20049;-77
2022/03/04 02:43:11;;;;;;;46.03;20.33;;;;;;;;;;5034236;28;20164;-76
2022/03/04 02:45:37;;;;;;;39.60;19.27;;;;;;;;;;5049460;28;20053;-78
2022/03/04 02:48:04;;;;;;;43.17;20.17;;;;;;;;;;5034227;28;20053;-77
2022/03/04 02:50:30;;;;;;;44.33;19.27;;;;;;;;;;5033330;28;20049;-76
2022/03/04 02:52:56;;;;;;;44.63;19.67;;;;;;;;;;5034011;28;20045;-75
2022/03/04 02:55:22;;;;;;;43.70;18.75;;;;;;;;;;5034112;28;20053;-79
2022/03/04 02:57:49;;;;;;;40.53;19.55;;;;;;;;;;5033735;28;20087;-77
2022/03/04 03:00:15;;;;;;;45.78;19.50;;;;;;;;;;5034162;28;20088;-77
2022/03/04 03:02:42;;;;;;;40.95;19.90;;;;;;;;;;5033890;28;20366;-76
2022/03/04 03:05:09;;;;;;;44.28;19.65;;;;;;;;;;5033961;28;20136;-78
2022/03/04 03:07:35;;;;;;;45.17;19.80;;;;;;;;;;5033753;28;20081;-78
2022/03/04 03:10:02;;;;;;;39.45;18.02;;;;;;;;;;5033722;28;20053;-76
2022/03/04 03:12:28;;;;;;;44.70;19.17;;;;;;;;;;5033639;28;20048;-77
2022/03/04 03:14:54;;;;;;;41.65;18.50;;;;;;;;;;5033711;28;20107;-77
2022/03/04 03:17:20;;;;;;;41.72;18.83;;;;;;;;;;5033797;28;20115;-78
2022/03/04 03:19:46;;;;;;;;;;;;;;;;;;5016306;28;20053;-76
2022/03/04 03:22:14;;;;;;;42.30;18.50;;;;;;;;;;5033642;28;20019;-78
2022/03/04 03:24:40;;;;;;;40.83;18.17;;;;;;;;;;5033414;28;20068;-77
2022/03/04 03:27:06;;;;;;;;;;;0.20;99.90;;;;;;5033704;28;20083;-77
2022/03/04 03:29:32;;;;;;;44.25;18.80;;;;;;;;;;5016127;28;19925;-77
2022/03/04 03:31:58;;;;;;;40.65;18.10;;;;;;;;;;5033162;28;20560;-76
2022/03/04 03:34:24;;;;;;;42.15;17.90;;;;;;;;;;5033423;28;20547;-77
2022/03/04 03:36:50;;;;;;;43.22;18.23;;;;;;;;;;5033193;28;20056;-77
2022/03/04 03:39:16;;;;;;;38.75;17.75;;;;;;;;;;5033252;28;20048;-77
2022/03/04 03:41:42;;;;;;;43.80;18.20;;;;;;;;;;5048289;28;20054;-76
2022/03/04 03:44:08;;;;;;;40.45;18.65;;;;;;;;;;5033333;28;20087;-75
2022/03/04 03:46:34;;;;;;;43.58;18.38;;;;;;;;;;5033055;28;20041;-76
2022/03/04 03:49:00;;;;;;;40.85;17.20;;;;;;;;;;5033010;28;20111;-77
2022/03/04 03:51:26;;;;;;;40.65;18.40;;;;;;;;;;5033059;28;20085;-76
2022/03/04 03:53:54;;;;;;;43.75;19.08;;;0.10;99.90;;;;;;5032824;28;20404;-75
2022/03/04 03:56:20;;;;;;;41.05;18.70;;;;;;;;;;5048168;28;20099;-75
2022/03/04 03:58:46;;;;;;;44.20;19.17;;;;;;;;;;5032911;28;20103;-76
2022/03/04 04:01:13;;;;;;;44.88;19.30;;;;;;;;;;5032815;28;20055;-75
2022/03/04 04:03:39;;;;;;;45.88;18.73;;;;;;;;;;5032630;28;20115;-76
2022/03/04 04:06:05;;;;;;;48.17;20.23;;;;;;;;;;5015243;28;20056;-77
2022/03/04 04:08:31;;;;;;;44.75;20.58;;;;;;;;;;5032710;28;20053;-77
2022/03/04 04:10:57;;;;;;;44.13;18.25;;;;;;;;;;5031119;28;20111;-76
2022/03/04 04:13:23;;;;;;;40.30;18.75;;;;;;;;;;5032755;28;20384;-77
2022/03/04 04:15:49;;;;;;;45.60;19.25;;;;;;;;;;5032592;28;20064;-77
2022/03/04 04:18:15;;;;;;;43.03;18.20;;;;;;;;;;5032639;28;20045;-77
2022/03/04 04:20:42;;;;;;;41.58;18.63;;;;;;;;;;5032467;28;20056;-77
2022/03/04 04:23:08;;;;;;;49.58;19.73;;;;;;;;;;5032516;28;20124;-76
2022/03/04 04:25:34;;;;;;;46.08;20.35;;;;;;;;;;5031012;28;20057;-77
2022/03/04 04:28:00;;;;;;;52.83;19.90;;;;;;;;;;5014671;28;20079;-77
2022/03/04 04:30:26;;;;;;;53.35;19.50;;;;;;;;;;5014706;28;20064;-77
2022/03/04 04:32:52;;;;;;;47.95;18.85;;;;;;;;;;5032132;28;20045;-78
2022/03/04 04:35:18;;;;;;;45.85;19.73;;;;;;;;;;5032356;28;20064;-78
2022/03/04 04:37:44;;;;;;;42.95;19.42;;;;;;;;;;5032180;28;20045;-78
2022/03/04 04:40:10;;;;;;;53.90;21.25;;;;;;;;;;5032285;28;20045;-77
2022/03/04 04:42:36;;;;;;;52.90;19.60;;;;;;;;;;5032249;28;20037;-77
2022/03/04 04:45:03;;;;;;;47.67;19.52;;;;;;;;;;5032218;28;20731;-78
2022/03/04 04:47:29;;;;;;;49.35;20.75;;;;;;;;;;5032009;28;20397;-78
2022/03/04 04:49:55;;;;;;;49.42;19.05;;;;;;;;;;5031963;28;20485;-78
2022/03/04 04:52:21;;;;;;;48.65;20.27;;;;;;;;;;5031952;28;20050;-80
2022/03/04 04:54:47;;;;;;;55.47;23.08;;;;;;;;;;5031782;28;20088;-78
2022/03/04 04:57:13;;;;;;;51.92;22.70;;;;;;;;;;5030934;28;20056;-79
2022/03/04 04:59:39;;;;;;;56.40;21.55;;;;;;;;;;5047323;28;20049;-79
2022/03/04 05:02:05;;;;;;;56.90;21.13;;;;;;;;;;5014514;28;20046;-80
2022/03/04 05:04:32;;;;;;;56.90;21.73;;;;;;;;;;5014341;28;20063;-81
2022/03/04 05:06:58;;;;;;;55.97;22.27;;;;;;;;;;5031836;28;20076;-80
2022/03/04 05:09:24;;;;;;;60.40;23.05;;;;;;;;;;5014093;28;20049;-78
2022/03/04 05:11:50;;;;;;;59.60;23.33;;;;;;;;;;5032025;28;20049;-80
2022/03/04 05:14:16;;;;;;;54.60;22.77;;;;;;;;;;5051341;28;20088;-81
2022/03/04 05:16:43;;;;;;;53.80;23.42;;;;;;;;;;5017991;28;20409;-81
2022/03/04 05:19:09;;;;;;;58.75;24.58;;;;;;;;;;5035925;28;20118;-80
2022/03/04 05:21:35;;;;;;;59.20;22.80;;;;;;;;;;5035628;28;20065;-80
2022/03/04 05:24:02;;;;;;;65.15;22.67;;;;;;;;;;5018018;28;20057;-78
2022/03/04 05:26:32;;;;;;;75.57;23.98;;;;;;;;;;5035730;28;20412;-80
2022/03/04 05:28:59;;;;;;;68.90;22.58;;;;;;;;;;5035847;28;20386;-77
2022/03/04 05:31:26;;;;;;;73.55;22.95;;;;;;;;;;5035752;28;20103;-81
2022/03/04 05:33:52;;;;;;;77.70;23.30;;;;;;;;;;5035458;28;20103;-81
2022/03/04 05:36:19;;;;;;;74.10;23.45;;;;;;;;;;5035533;28;20125;-80
2022/03/04 05:38:45;;;;;;;70.82;23.25;;;;;;;;;;5017829;28;20183;-81
2022/03/04 05:41:12;;;;;;;66.28;23.30;;;;;;;;;;5035507;28;20057;-81
2022/03/04 05:43:38;;;;;;;74.70;22.98;;;;;;;;;;5035373;28;20091;-79
2022/03/04 05:46:05;;;;;;;71.13;23.90;;;;;;;;;;5017942;28;20054;-80
2022/03/04 05:48:31;;;;;;;60.58;23.80;;;;;;;;;;5035272;28;20056;-81
2022/03/04 05:50:57;;;;;;;62.28;23.92;;;;;;;;;;5035171;28;20165;-81
2022/03/04 05:53:23;;;;;;;64.70;23.23;;;;;;;;;;5017836;28;20052;-81
2022/03/04 05:55:49;;;;;;;58.13;23.42;;;;;;;;;;5017633;28;20057;-81
2022/03/04 05:58:15;;;;;;;58.33;22.40;;;;;;;;;;5035312;28;20047;-81
2022/03/04 06:00:41;;;;;;;59.80;22.70;;;;;;;;;;5017690;28;20057;-82
2022/03/04 06:03:07;;;;;;;61.67;22.95;;;;;;;;;;5035210;28;20517;-82
2022/03/04 06:05:34;;;;;;;67.70;23.35;;;;;;;;;;5035012;28;20140;-82
2022/03/04 06:08:00;;;;;;;63.33;23.38;;;;;;;;;;5034815;28;20489;-82
2022/03/04 06:10:26;;;;;;;66.93;24.33;;;;;;;;;;5035200;28;20061;-82
2022/03/04 06:12:52;;;;;;;70.60;24.52;;;-0.20;99.90;;;;;;5034933;28;20445;-82
2022/03/04 06:15:18;;;;;;;70.90;23.00;;;;;;;;;;5040776;28;20041;-82
2022/03/04 06:17:48;;;;;;;65.97;24.05;;;;;;;;;;5041182;28;20049;-81
2022/03/04 06:20:14;;;;;;;79.50;24.95;;;;;;;;;;5034686;28;20053;-80
2022/03/04 06:22:40;;;;;;;73.28;25.15;;;;;;;;;;5035106;28;20049;-81
2022/03/04 06:25:06;;;;;;;64.28;24.30;;;;;;;;;;5050252;28;20041;-83
2022/03/04 06:27:32;;;;;;;64.93;25.00;;;;;;;;;;5034949;28;20134;-83
2022/03/04 06:29:59;;;;;;;58.15;24.90;;;;;;;;;;5034703;28;20049;-82
2022/03/04 06:32:25;;;;;;;61.13;24.90;;;;;;;;;;5034484;28;20049;-82
2022/03/04 06:34:51;;;;;;;52.22;22.17;;;;;;;;;;5016992;28;20047;-82
2022/03/04 06:37:17;;;;;;;65.45;23.65;;;;;;;;;;5034451;28;20084;-78
2022/03/04 06:39:43;;;;;;;58.38;22.58;;;;;;;;;;5034572;28;20103;-82
2022/03/04 06:42:09;;;;;;;61.85;24.15;;;;;;;;;;5034248;28;20424;-81
2022/03/04 06:44:35;;;;;;;63.20;22.05;;;;;;;;;;5034357;28;20132;-81
2022/03/04 06:47:01;;;;;;;60.75;22.45;;;;;;;;;;5018237;28;20707;-81
2022/03/04 06:49:27;;;;;;;61.95;22.92;;;;;;;;;;5027631;28;20119;-81
2022/03/04 06:51:53;;;;;;;62.97;22.17;;;;;;;;;;5021907;28;20057;-82
2022/03/04 06:54:19;;;;;;;62.92;22.98;;;;;;;;;;5033129;28;20084;-78
2022/03/04 06:56:45;;;;;;;50.70;21.35;;;;;;;;;;5028738;28;20048;-81
2022/03/04 06:59:11;;;;;;;58.50;21.30;;;;;;;;;;5031877;28;20052;-81
2022/03/04 07:01:38;;;;;;;54.47;22.45;;;;;;;;;;5022093;28;20076;-75
2022/03/04 07:04:04;;;;;;;58.33;21.48;;;;;;;;;;5016615;28;20045;-78
2022/03/04 07:06:30;;;;;;;54.67;22.08;;;;;;;;;;5009903;28;20104;-78
2022/03/04 07:08:56;;;;;;;55.53;21.17;;;;;;;;;;5017970;28;20482;-80
2022/03/04 07:11:21;;;;;;;59.85;22.55;;;-0.20;99.90;;;;;;5036277;28;20538;-80
2022/03/04 07:13:47;;;;;;;48.80;21.33;;;;;;;;;;5008523;28;20045;-80
2022/03/04 07:16:14;;;;;;;55.60;22.48;;;;;;;;;;5031964;28;20615;-80
2022/03/04 07:18:40;;;;;;;61.28;23.88;;;;;;;;;;5029548;28;20124;-77
2022/03/04 07:21:06;;;;;;;54.63;23.00;;;;;;;;;;5026015;28;20494;-80
2022/03/04 07:23:32;;;;;;;69.80;25.70;;;;;;;;;;5033586;28;20050;-79
2022/03/04 07:25:58;;;;;;;63.65;23.38;;;;;;;;;;5034304;28;20392;-77
2022/03/04 07:28:24;;;;;;;60.70;24.67;;;;;;;;;;5006166;28;20050;-75
2022/03/04 07:30:50;;;;;;;62.35;24.35;;;0.00;99.90;;;;;;5028169;28;20140;-77
2022/03/04 07:33:16;;;;;;;67.38;23.48;;;;;;;;;;5025256;28;20128;-76
2022/03/04 07:35:45;;;;;;;66.22;24.17;;;;;;;;;;4999782;28;20508;-80
2022/03/04 07:38:12;;;;;;;59.95;23.42;;;;;;;;;;5037644;28;20402;-81
2022/03/04 07:40:38;;;;;;;57.20;23.73;;;;;;;;;;5034359;28;20053;-80
2022/03/04 07:43:04;;;;;;;62.13;23.23;;;;;;;;;;5010344;28;20068;-80
2022/03/04 07:45:30;;;;;;;69.20;25.48;;;;;;;;;;5030969;28;20048;-78
2022/03/04 07:47:56;;;;;;;68.00;23.48;;;;;;;;;;5036999;28;20052;-80
2022/03/04 07:50:22;;;;;;;61.80;23.17;;;;;;;;;;5027243;28;20088;-78
2022/03/04 07:52:48;;;;;;;67.15;25.75;;;;;;;;;;5031919;28;20053;-80
2022/03/04 07:55:15;;;;;;;78.40;26.48;;;;;;;;;;5011506;28;20077;-80
2022/03/04 07:57:41;;;;;;;62.90;24.48;;;;;;;;;;5020225;28;20087;-76
2022/03/04 08:00:10;;;;;;;68.40;25.35;;;;;;;;;;5025673;28;20053;-81
2022/03/04 08:02:36;;;;;;;67.47;24.60;;;;;;;;;;5028188;28;20049;-74
2022/03/04 08:05:02;;;;;;;75.25;26.63;;;;;;;;;;5033687;28;20071;-82
2022/03/04 08:07:28;;;;;;;66.15;23.85;;;;;;;;;;5000606;28;20144;-82
2022/03/04 08:09:54;;;;;;;69.13;25.35;;;;;;;;;;5020353;28;20049;-81
2022/03/04 08:12:22;;;;;;;55.05;23.23;;;;;;;;;;5012042;28;20060;-78
2022/03/04 08:14:48;;;;;;;65.93;25.08;;;;;;;;;;5011500;28;20046;-80
2022/03/04 08:17:15;;;;;;;64.75;24.13;;;;;;;;;;5012397;28;20057;-83
2022/03/04 08:19:41;;;;;;;61.58;23.70;;;;;;;;;;5011629;28;20054;-80
2022/03/04 08:22:08;;;;;;;56.30;23.95;;;;;;;;;;5012717;28;20065;-80
2022/03/04 08:24:34;;;;;;;52.25;23.30;;;;;;;;;;5012566;28;20046;-83
2022/03/04 08:27:00;;;;;;;56.85;22.92;;;;;;;;;;5012636;28;20727;-80
2022/03/04 08:29:26;;;;;;;60.78;23.40;;;;;;;;;;5012813;28;20054;-78
2022/03/04 08:31:52;;;;;;;59.53;24.10;;;;;;;;;;5012553;28;20049;-87
2022/03/04 08:34:19;;;;;;;62.28;24.52;;;;;;;;;;5012335;28;20041;-84
2022/03/04 08:36:45;;;;;;;61.55;25.08;;;;;;;;;;5012644;28;20081;-87
2022/03/04 08:39:11;;;;;;;58.13;23.92;;;;;;;;;;5012452;28;20050;-81
2022/03/04 08:41:37;;;;;;;64.05;25.65;;;;;;;;;;5012270;28;20192;-84
2022/03/04 08:44:04;;;;;;;61.55;25.25;;;;;;;;;;5012076;28;20046;-84
2022/03/04 08:46:30;;;;;;;56.20;24.17;;;;;;;;;;5011795;28;20046;-83
2022/03/04 08:48:56;;;;;;;63.58;26.52;;;;;;;;;;5012397;28;20049;-79
2022/03/04 08:51:25;;;;;;;59.72;24.10;;;;;;;;;;5012085;28;20128;-79
2022/03/04 08:53:54;;;;;;;57.35;25.65;;;1.00;99.90;;;;;;5012225;28;20129;-79
2022/03/04 08:56:20;;;;;;;54.33;24.00;;;;;;;;;;5011998;28;20072;-74
2022/03/04 08:58:46;;;;;;;55.38;23.88;;;;;;;;;;5011467;28;20049;-79
2022/03/04 09:01:13;;;;;;;55.05;23.10;;;;;;;;;;5010546;28;20489;-75
2022/03/04 09:03:39;;;;;;;53.40;23.75;;;;;;;;;;5011139;28;20074;-82
2022/03/04 09:06:05;;;;;;;50.45;24.05;;;;;;;;;;5011583;28;20108;-82
2022/03/04 09:08:32;;;;;;;50.08;23.48;;;;;;;;;;5011306;28;20054;-76
2022/03/04 09:10:58;;;;;;;44.78;21.13;;;;;;;;;;5010876;28;20504;-77
2022/03/04 09:13:25;;;;;;;44.03;21.50;;;;;;;;;;5011314;28;20482;-77
2022/03/04 09:15:51;;;;;;;44.90;21.65;;;;;;;;;;5010978;28;20481;-79
2022/03/04 09:18:18;;;;;;;43.72;21.60;;;;;;;;;;5024291;28;20077;-71
2022/03/04 09:20:44;;;;;;;43.38;20.35;;;;;;;;;;5030966;28;20493;-75
2022/03/04 09:23:10;;;;;;;45.80;22.35;;;;;;;;;;5021989;28;20102;-78
2022/03/04 09:25:37;;;;;;;44.70;20.88;;;;;;;;;;5016664;28;20517;-77
2022/03/04 09:28:04;;;;;;;41.42;21.65;;;;;;;;;;5028220;28;20046;-78
2022/03/04 09:30:33;;;;;;;38.35;19.48;;;;;;;;;;5019561;28;20052;-78
2022/03/04 09:32:59;;;;;;;41.05;20.05;;;1.70;99.90;;;;;;5033638;28;20049;-76
2022/03/04 09:35:25;;;;;;;;;;;;;;;;;;5021416;28;20042;-78
2022/03/04 09:37:51;;;;;;;47.75;23.05;;;2.00;99.90;;;;;;5025283;28;19929;-77
2022/03/04 09:40:17;;;;;;;45.33;22.05;;;;;;;;;;5031255;28;20071;-75
2022/03/04 09:42:43;;;;;;;43.90;21.75;;;;;;;;;;5018804;28;20099;-78
2022/03/04 09:45:10;;;;;;;41.25;20.30;;;;;;;;;;5028107;28;20124;-79
2022/03/04 09:47:36;;;;;;;34.70;18.48;;;;;;;;;;4990232;28;20050;-78
2022/03/04 09:50:03;;;;;;;35.75;19.25;;;2.60;99.90;;;;;;5020527;28;20513;-77
2022/03/04 09:52:30;;;;;;;38.10;18.60;;;3.00;99.90;;;;;;5033580;28;20045;-81
2022/03/04 09:54:57;;;;;;;39.67;21.13;;;;;;;;;;5024552;28;20063;-78
2022/03/04 09:57:23;;;;;;;;;;;;;;;;;;5027129;28;20092;-75
2022/03/04 09:59:49;;;;;;;37.97;20.10;;;;;;;;;;5027963;28;20377;-73
2022/03/04 10:02:15;;;;;;;34.67;18.80;;;3.00;99.90;;;;;;5034599;28;20071;-73
2022/03/04 10:04:41;;;;;;;31.02;18.27;;;;;;;;;;5030979;28;20037;-71
2022/03/04 10:07:15;;;;;;;34.80;19.13;;;;;;;;;;5013963;28;20127;-72
2022/03/04 10:09:48;;;;;;;33.63;18.90;;;;;;;;;;5026994;28;20045;-76
2022/03/04 10:12:15;;;;;;;30.75;17.50;;;;;;;;;;5020325;28;20104;-76
2022/03/04 10:15:01;;;;;;;35.17;17.92;;;;;;;;;;5040793;28;20069;-83
2022/03/04 10:17:28;;;;;;;28.20;16.77;;;;;;;;;;5030889;28;20052;-82
2022/03/04 10:19:56;;;;;;;;;;;3.50;99.90;;;;;;5026283;28;20500;-81
2022/03/04 10:22:23;;;;;;;29.52;17.83;;;;;;;;;;5019173;28;19961;-81
2022/03/04 10:24:49;;;;;;;31.48;16.85;;;;;;;;;;5025195;28;20128;-81
2022/03/04 10:27:17;;;;;;;31.05;17.63;;;;;;;;;;5027427;28;20418;-82
2022/03/04 10:29:44;;;;;;;31.42;17.38;;;;;;;;;;5032964;28;20060;-77
2022/03/04 10:32:15;;;;;;;31.15;17.10;;;;;;;;;;5029973;28;20076;-81
2022/03/04 10:34:56;;;;;;;32.58;18.48;;;3.90;99.90;;;;;;5034389;28;20052;-82
2022/03/04 10:37:40;;;;;;;33.33;17.35;;;;;;;;;;5034338;28;20049;-81
2022/03/04 10:40:22;;;;;;;32.83;17.48;;;;;;;;;;5026523;28;20042;-78
2022/03/04 10:42:55;;;;;;;28.90;17.00;;;4.50;99.90;;;;;;5032780;28;20072;-75
2022/03/04 10:45:23;;;;;;;27.60;15.98;;;4.40;99.90;;;;;;5034048;28;20060;-75
2022/03/04 10:47:50;;;;;;;28.38;16.27;;;;;;;;;;5032962;28;20052;-74
2022/03/04 10:50:35;;;;;;;25.45;15.73;;;4.80;99.90;;;;;;5034251;28;20181;-75
2022/03/04 10:53:06;;;;;;;23.92;15.27;;;4.60;99.90;;;;;;5034168;28;20038;-75
2022/03/04 10:55:33;;;;;;;22.27;13.15;;;4.90;99.90;;;;;;5034230;28;20148;-73
2022/03/04 10:58:01;;;;;;;22.75;14.05;;;4.90;99.90;;;;;;5016252;28;20116;-76
2022/03/04 11:00:30;;;;;;;23.42;14.40;;;5.00;99.90;;;;;;5016301;28;20050;-81
2022/03/04 11:02:55;;;;;;;21.05;13.45;;;5.50;99.90;;;;;;5034201;28;20037;-76
2022/03/04 11:05:22;;;;;;;26.63;13.63;;;5.20;99.90;;;;;;5016415;28;20128;-74
2022/03/04 11:07:49;;;;;;;25.60;14.18;;;5.20;99.90;;;;;;5033691;28;20553;-83
2022/03/04 11:10:15;;;;;;;24.45;14.10;;;5.50;99.90;;;;;;5033042;28;20143;-82
2022/03/04 11:12:42;;;;;;;23.40;13.40;;;;;;;;;;5015871;28;20041;-81
2022/03/04 11:15:11;;;;;;;22.83;14.25;;;5.60;99.90;;;;;;5027999;28;20128;-80
2022/03/04 11:17:38;;;;;;;21.25;13.60;;;;;;;;;;5038111;28;20050;-80
2022/03/04 11:20:06;;;;;;;21.10;14.45;;;5.50;99.90;;;;;;5028701;28;20052;-79
2022/03/04 11:22:33;;;;;;;23.52;14.70;;;5.50;99.90;;;;;;5012978;28;20102;-79
2022/03/04 11:25:10;;;;;;;25.17;14.23;;;5.70;99.90;;;;;;5022447;28;20098;-80
2022/03/04 11:27:43;;;;;;;;;;;5.80;99.90;;;;;;5033612;28;20408;-75
2022/03/04 11:30:27;;;;;;;23.00;13.73;;;6.00;99.90;;;;;;5034298;28;19921;-80
2022/03/04 11:33:05;;;;;;;22.33;13.90;;;;;;;;;;5035964;28;20099;-76
2022/03/04 11:36:04;;;;;;;28.45;14.70;;;6.10;99.90;;;;;;5029359;28;20075;-79
2022/03/04 11:38:48;;;;;;;22.15;13.60;;;6.00;99.90;;;;;;5033278;28;20053;-74
2022/03/04 11:41:23;;;;;;;27.10;15.05;;;5.90;99.90;;;;;;5032291;28;20053;-76
2022/03/04 11:43:54;;;;;;;21.00;13.38;;;6.40;99.90;;;;;;5015943;28;20044;-77
2022/03/04 11:46:24;;;;;;;24.50;14.60;;;6.20;99.90;;;;;;5033211;28;20049;-78
2022/03/04 11:49:21;;;;;;;20.50;13.05;;;6.40;99.90;;;;;;5015560;28;20099;-78
2022/03/04 11:52:06;;;;;;;21.03;13.70;;;6.40;99.90;;;;;;5033232;28;20132;-78
2022/03/04 11:54:31;;;;;;;22.42;13.63;;;6.50;99.90;;;;;;5033060;28;20296;-76
2022/03/04 11:56:57;;;;;;;22.88;13.77;;;6.60;99.90;;;;;;4999351;28;20096;-77
2022/03/04 11:59:23;;;;;;;23.35;13.68;;;6.60;99.90;;;;;;5033131;28;20049;-78
2022/03/04 12:01:48;;;;;;;20.35;13.38;;;6.70;99.90;;;;;;5032993;28;20061;-76
2022/03/04 12:04:19;;;;;;;20.15;12.23;;;6.50;99.90;;;;;;5032726;28;20096;-77
2022/03/04 12:07:05;;;;;;;19.00;12.85;;;6.50;99.90;;;;;;5033036;28;20042;-77
2022/03/04 12:09:32;;;;;;;19.75;12.30;;;6.70;99.90;;;;;;5033021;28;20041;-76
2022/03/04 12:12:24;;;;;;;22.50;12.77;;;6.90;99.90;;;;;;5014825;28;20485;-77
2022/03/04 12:14:55;;;;;;;19.85;11.93;;;7.10;99.90;;;;;;5032549;28;20466;-78
2022/03/04 12:17:21;;;;;;;18.30;12.32;;;7.00;99.90;;;;;;5032733;28;20095;-78
2022/03/04 12:19:54;;;;;;;20.20;12.52;;;7.20;99.90;;;;;;5032629;28;20049;-77
2022/03/04 12:22:24;;;;;;;21.83;11.77;;;7.40;99.90;;;;;;5032374;28;20064;-80
2022/03/04 12:25:01;;;;;;;21.92;11.57;;;7.40;99.90;;;;;;5032522;28;20049;-78
2022/03/04 12:27:36;;;;;;;20.98;13.50;;;7.40;99.90;;;;;;5032533;28;20212;-78
2022/03/04 12:30:19;;;;;;;23.35;12.45;;;7.00;99.90;;;;;;5032455;28;20048;-76
2022/03/04 12:32:46;;;;;;;20.65;12.77;;;7.30;99.90;;;;;;5032453;28;20045;-77
2022/03/04 12:35:15;;;;;;;22.38;14.05;;;7.10;99.90;;;;;;5032249;28;20089;-78
2022/03/04 12:37:41;;;;;;;21.90;13.32;;;7.40;99.90;;;;;;5032163;28;20047;-78
2022/03/04 12:40:08;;;;;;;23.40;14.27;;;7.00;99.90;;;;;;5014821;28;20045;-76
2022/03/04 12:42:34;;;;;;;22.33;13.60;;;7.40;99.90;;;;;;5032492;28;20053;-78
2022/03/04 12:44:59;;;;;;;22.95;13.80;;;7.40;99.90;;;;;;5014896;28;20042;-74
2022/03/04 12:47:26;;;;;;;21.60;14.25;;;7.50;99.90;;;;;;5032193;28;20046;-77
2022/03/04 12:49:52;;;;;;;24.85;14.05;;;7.70;99.90;;;;;;5032204;28;20054;-79
2022/03/04 12:52:19;;;;;;;;;;;8.00;99.90;;;;;;5032446;28;20120;-78
2022/03/04 12:54:45;;;;;;;22.80;13.93;;;7.90;99.90;;;;;;5032250;28;19929;-77
2022/03/04 12:57:12;;;;;;;28.92;15.23;;;8.00;99.90;;;;;;5032216;28;20115;-78
2022/03/04 12:59:44;;;;;;;;;;;9.00;99.90;;;;;;5032538;28;20497;-79
2022/03/04 13:02:10;;;;;;;24.10;14.70;;;8.20;99.90;;;;;;5032142;28;19921;-78
2022/03/04 13:04:35;;;;;;;25.42;15.75;;;8.80;99.90;;;;;;5014467;28;20110;-78
2022/03/04 13:07:02;;;;;;;26.58;16.00;;;8.80;99.90;;;;;;5031933;28;20053;-78
2022/03/04 13:09:29;;;;;;;26.20;16.50;;;8.70;99.90;;;;;;5031847;28;20053;-77
2022/03/04 13:11:55;;;;;;;23.60;14.68;;;9.30;99.90;;;;;;5032068;28;20050;-74
2022/03/04 13:14:21;;;;;;;;;;;9.60;99.90;;;;;;5032451;28;20041;-78
2022/03/04 13:16:53;;;;;;;28.55;16.63;;;9.00;99.90;;;;;;5031943;28;20289;-78
2022/03/04 13:19:20;;;;;;;28.77;14.82;;;10.30;99.90;;;;;;5031832;28;20484;-78
2022/03/04 13:21:48;;;;;;;22.27;15.02;;;9.90;99.90;;;;;;5014101;28;20049;-78
2022/03/04 13:24:39;;;;;;;22.85;15.60;;;10.50;99.90;;;;;;5014520;28;20057;-77
2022/03/04 13:27:16;;;;;;;25.35;14.98;;;9.10;99.90;;;;;;5031385;28;20147;-78
2022/03/04 13:29:48;;;;;;;25.77;15.77;;;9.50;99.90;;;;;;5031674;28;20050;-76
2022/03/04 13:32:22;;;;;;;24.02;15.57;;;9.60;99.90;;;;;;5031949;28;20115;-78
2022/03/04 13:34:55;;;;;;;24.63;16.38;;;10.00;99.90;;;;;;5017414;28;20399;-77
2022/03/04 13:37:23;;;;;;;27.05;15.70;;;9.60;99.90;;;;;;5035830;28;20060;-78
2022/03/04 13:40:19;;;;;;;25.02;15.65;;;10.60;99.90;;;;;;5035724;28;20549;-77
2022/03/04 13:42:50;;;;;;;21.90;15.00;;;9.80;99.90;;;;;;5035736;28;20132;-79
2022/03/04 13:45:39;;;;;;;24.83;15.30;;;10.10;99.90;;;;;;5035711;28;20128;-75
2022/03/04 13:48:06;;;;;;;22.38;15.30;;;10.10;99.90;;;;;;5035504;28;20045;-76
2022/03/04 13:50:39;;;;;;;24.88;15.52;;;9.90;99.90;;;;;;5035470;28;20136;-76
2022/03/04 13:53:10;;;;;;;22.70;15.85;;;9.90;99.90;;;;;;5035253;28;20053;-78
2022/03/04 13:55:38;;;;;;;20.30;14.40;;;9.80;99.90;;;;;;5017936;28;20136;-77